| time (UTC) | temp C | wind direction | speed KPH | gust KPH | rain 1hr cm | rain 24hr cm | rain mn cm | humidity % | barometer mb |
| 20260504034947 | 10 | 247 | 0.0 | 0.0 | 0.00 | 0.00 | 0.00 | 77 | 1016.8 |
| 20260504034446 | 10 | 247 | 0.0 | 0.0 | 0.00 | 0.00 | 0.00 | 77 | 1016.8 |
| 20260504033950 | 10 | 247 | 0.0 | 0.0 | 0.00 | 0.00 | 0.00 | 76 | 1016.7 |
| 20260504033446 | 11 | 247 | 0.0 | 0.0 | 0.00 | 0.00 | 0.00 | 76 | 1016.8 |
| 20260504032947 | 11 | 247 | 0.0 | 0.0 | 0.00 | 0.00 | 0.00 | 76 | 1016.8 |
| 20260504032448 | 11 | 247 | 0.0 | 0.0 | 0.00 | 0.00 | 0.00 | 76 | 1016.8 |
| 20260504031946 | 11 | 247 | 0.0 | 0.0 | 0.00 | 0.00 | 0.00 | 75 | 1016.7 |
| 20260504031452 | 11 | 247 | 0.0 | 0.0 | 0.00 | 0.00 | 0.00 | 74 | 1016.5 |
| 20260504031446 | 11 | 247 | 0.0 | 0.0 | 0.00 | 0.00 | 0.00 | 74 | 1016.6 |
| 20260504030446 | 11 | 247 | 0.0 | 0.0 | 0.00 | 0.00 | 0.00 | 73 | 1016.5 |
| 20260504025950 | 12 | 247 | 0.0 | 0.0 | 0.00 | 0.00 | 0.00 | 73 | 1016.6 |
| 20260504025945 | 12 | 247 | 0.0 | 0.0 | 0.00 | 0.00 | 0.00 | 74 | 1016.6 |
| 20260504025606 | 12 | 247 | 0.0 | 0.0 | 0.00 | 0.00 | 0.00 | 70 | 1016.5 |
| 20260504024947 | 12 | 247 | 0.0 | 0.0 | 0.00 | 0.00 | 0.00 | 72 | 1016.6 |
| 20260504024446 | 12 | 247 | 0.0 | 0.0 | 0.00 | 0.00 | 0.00 | 72 | 1016.6 |
| 20260504023446 | 12 | 247 | 0.0 | 0.0 | 0.00 | 0.00 | 0.00 | 69 | 1016.5 |
| 20260504022950 | 13 | 247 | 0.0 | 0.0 | 0.00 | 0.00 | 0.00 | 67 | 1016.4 |
| 20260504022944 | 13 | 247 | 0.0 | 0.0 | 0.00 | 0.00 | 0.00 | 69 | 1016.4 |
| 20260504022604 | 13 | 247 | 0.0 | 0.0 | 0.00 | 0.00 | 0.00 | 66 | 1016.3 |
| 20260504021443 | 13 | 247 | 0.0 | 0.0 | 0.00 | 0.00 | 0.00 | 66 | 1016.4 |
| 20260504020943 | 13 | 247 | 0.0 | 0.0 | 0.00 | 0.00 | 0.00 | 63 | 1016.3 |
| 20260504020444 | 13 | 247 | 0.0 | 0.0 | 0.00 | 0.00 | 0.00 | 64 | 1016.3 |
| 20260504015941 | 13 | 247 | 0.0 | 0.0 | 0.00 | 0.00 | 0.00 | 63 | 1016.2 |
| 20260504015441 | 13 | 247 | 0.0 | 0.0 | 0.00 | 0.00 | 0.00 | 63 | 1016.1 |
| 20260504014940 | 13 | 247 | 0.0 | 0.0 | 0.00 | 0.00 | 0.00 | 62 | 1016.1 |
| 20260504014442 | 14 | 247 | 0.0 | 0.0 | 0.00 | 0.00 | 0.00 | 61 | 1016.0 |
| 20260504013940 | 14 | 247 | 0.0 | 0.0 | 0.00 | 0.00 | 0.00 | 62 | 1015.9 |
| 20260504013440 | 14 | 247 | 0.0 | 0.0 | 0.00 | 0.00 | 0.00 | 59 | 1015.9 |
| 20260504012944 | 14 | 247 | 0.0 | 0.0 | 0.00 | 0.00 | 0.00 | 57 | 1015.9 |
| 20260504012938 | 14 | 247 | 0.0 | 0.0 | 0.00 | 0.00 | 0.00 | 59 | 1015.9 |
| 20260504011939 | 14 | 247 | 0.0 | 0.0 | 0.00 | 0.00 | 0.00 | 57 | 1015.9 |
| 20260504011440 | 14 | 247 | 0.0 | 0.0 | 0.00 | 0.00 | 0.00 | 57 | 1015.9 |
| 20260504010939 | 15 | 247 | 0.0 | 0.0 | 0.00 | 0.00 | 0.00 | 59 | 1015.9 |
| 20260504010440 | 15 | 247 | 0.0 | 0.0 | 0.00 | 0.00 | 0.00 | 56 | 1015.8 |
| 20260504005940 | 15 | 247 | 0.0 | 0.0 | 0.00 | 0.00 | 0.00 | 60 | 1015.8 |
| 20260504005440 | 15 | 247 | 0.0 | 0.0 | 0.00 | 0.00 | 0.00 | 51 | 1015.8 |
| 20260504004939 | 15 | 247 | 0.0 | 0.0 | 0.00 | 0.00 | 0.00 | 56 | 1015.8 |
| 20260504004438 | 16 | 247 | 0.0 | 0.0 | 0.00 | 0.00 | 0.00 | 51 | 1015.7 |
| 20260504003943 | 16 | 247 | 0.0 | 0.0 | 0.00 | 0.00 | 0.00 | 54 | 1015.6 |
| 20260504003938 | 16 | 247 | 0.0 | 0.0 | 0.00 | 0.00 | 0.00 | 53 | 1015.6 |
| 20260504002939 | 16 | 247 | 0.0 | 0.0 | 0.00 | 0.00 | 0.00 | 45 | 1015.6 |
| 20260504002440 | 17 | 247 | 0.0 | 0.0 | 0.00 | 0.00 | 0.00 | 47 | 1015.5 |
| 20260504001939 | 17 | 247 | 0.0 | 0.0 | 0.00 | 0.00 | 0.00 | 49 | 1015.4 |
| 20260504001438 | 17 | 247 | 0.0 | 0.0 | 0.00 | 0.00 | 0.00 | 44 | 1015.4 |
| 20260504000938 | 17 | 247 | 0.0 | 0.0 | 0.00 | 0.00 | 0.00 | 41 | 1015.3 |
| 20260504000439 | 18 | 247 | 0.0 | 0.0 | 0.00 | 0.00 | 0.00 | 41 | 1015.4 |
| 20260503235939 | 18 | 247 | 0.0 | 0.0 | 0.00 | 0.00 | 0.00 | 41 | 1015.4 |
| 20260503235439 | 18 | 247 | 0.0 | 0.0 | 0.00 | 0.00 | 0.00 | 42 | 1015.4 |
| 20260503234938 | 18 | 247 | 0.0 | 1.6 | 0.00 | 0.00 | 0.00 | 41 | 1015.4 |
| 20260503234440 | 18 | 247 | 0.0 | 4.8 | 0.00 | 0.00 | 0.00 | 39 | 1015.4 |
| 20260503233943 | 18 | 248 | 0.0 | 3.2 | 0.00 | 0.00 | 0.00 | 38 | 1015.3 |
| 20260503233938 | 18 | 239 | 0.0 | 4.8 | 0.00 | 0.00 | 0.00 | 38 | 1015.3 |
| 20260503232940 | 19 | 234 | 1.6 | 6.4 | 0.00 | 0.00 | 0.00 | 39 | 1015.3 |
| 20260503232439 | 19 | 287 | 3.2 | 6.4 | 0.00 | 0.00 | 0.00 | 37 | 1015.3 |
| 20260503231938 | 19 | 249 | 1.6 | 6.4 | 0.00 | 0.00 | 0.00 | 37 | 1015.4 |
| 20260503231438 | 19 | 231 | 0.0 | 3.2 | 0.00 | 0.00 | 0.00 | 37 | 1015.4 |
| 20260503230939 | 19 | 250 | 0.0 | 4.8 | 0.00 | 0.00 | 0.00 | 36 | 1015.4 |
| 20260503230438 | 19 | 240 | 1.6 | 6.4 | 0.00 | 0.00 | 0.00 | 36 | 1015.5 |
| 20260503225939 | 19 | 245 | 1.6 | 6.4 | 0.00 | 0.00 | 0.00 | 36 | 1015.4 |
| 20260503225437 | 19 | 238 | 0.0 | 3.2 | 0.00 | 0.00 | 0.00 | 37 | 1015.5 |
| 20260503224936 | 19 | 235 | 1.6 | 6.4 | 0.00 | 0.00 | 0.00 | 36 | 1015.5 |
| 20260503224436 | 19 | 237 | 1.6 | 6.4 | 0.00 | 0.00 | 0.00 | 37 | 1015.5 |
| 20260503223939 | 19 | 244 | 3.2 | 8.0 | 0.00 | 0.00 | 0.00 | 36 | 1015.6 |
| 20260503223437 | 19 | 226 | 3.2 | 8.0 | 0.00 | 0.00 | 0.00 | 37 | 1015.6 |
| 20260503222936 | 19 | 264 | 1.6 | 8.0 | 0.00 | 0.00 | 0.00 | 36 | 1015.6 |
| 20260503222440 | 19 | 278 | 1.6 | 9.7 | 0.00 | 0.00 | 0.00 | 37 | 1015.6 |
| 20260503222435 | 19 | 246 | 1.6 | 9.7 | 0.00 | 0.00 | 0.00 | 37 | 1015.6 |
| 20260503221439 | 20 | 234 | 1.6 | 8.0 | 0.00 | 0.00 | 0.00 | 38 | 1015.6 |
| 20260503221434 | 19 | 226 | 1.6 | 8.0 | 0.00 | 0.00 | 0.00 | 36 | 1015.5 |
| 20260503221056 | 19 | 125 | 0.0 | 3.2 | 0.00 | 0.00 | 0.00 | 38 | 1015.6 |
| 20260503215934 | 20 | 238 | 0.0 | 4.8 | 0.00 | 0.00 | 0.00 | 37 | 1015.7 |
| 20260503215434 | 20 | 238 | 1.6 | 6.4 | 0.00 | 0.00 | 0.00 | 38 | 1015.7 |
| 20260503214935 | 20 | 144 | 1.6 | 8.0 | 0.00 | 0.00 | 0.00 | 36 | 1015.7 |
| 20260503214432 | 20 | 250 | 1.6 | 9.7 | 0.00 | 0.00 | 0.00 | 37 | 1015.7 |
| 20260503213938 | 20 | 265 | 3.2 | 16.1 | 0.00 | 0.00 | 0.00 | 37 | 1015.8 |
| 20260503213932 | 20 | 196 | 1.6 | 9.7 | 0.00 | 0.00 | 0.00 | 34 | 1015.7 |
| 20260503212930 | 20 | 278 | 3.2 | 16.1 | 0.00 | 0.00 | 0.00 | 34 | 1015.8 |
| 20260503212430 | 20 | 275 | 4.8 | 11.3 | 0.00 | 0.00 | 0.00 | 35 | 1015.9 |
| 20260503211928 | 20 | 135 | 3.2 | 9.7 | 0.00 | 0.00 | 0.00 | 33 | 1015.8 |
| 20260503211428 | 20 | 249 | 3.2 | 14.5 | 0.00 | 0.00 | 0.00 | 35 | 1015.8 |
| 20260503210927 | 20 | 252 | 3.2 | 14.5 | 0.00 | 0.00 | 0.00 | 35 | 1015.9 |
| 20260503210424 | 20 | 288 | 1.6 | 9.7 | 0.00 | 0.00 | 0.00 | 35 | 1015.9 |
| 20260503205925 | 20 | 269 | 0.0 | 3.2 | 0.00 | 0.00 | 0.00 | 37 | 1015.9 |
| 20260503205429 | 20 | 226 | 3.2 | 14.5 | 0.00 | 0.00 | 0.00 | 34 | 1016.0 |
| 20260503205423 | 20 | 231 | 1.6 | 9.7 | 0.00 | 0.00 | 0.00 | 36 | 1015.9 |
| 20260503204422 | 20 | 231 | 3.2 | 14.5 | 0.00 | 0.00 | 0.00 | 36 | 1016.1 |
| 20260503203923 | 20 | 276 | 3.2 | 14.5 | 0.00 | 0.00 | 0.00 | 36 | 1016.1 |
| 20260503203423 | 20 | 233 | 3.2 | 16.1 | 0.00 | 0.00 | 0.00 | 34 | 1016.2 |
| 20260503202922 | 20 | 259 | 3.2 | 16.1 | 0.00 | 0.00 | 0.00 | 34 | 1016.3 |
| 20260503202422 | 20 | 231 | 3.2 | 11.3 | 0.00 | 0.00 | 0.00 | 36 | 1016.4 |
| 20260503201927 | 20 | 268 | 4.8 | 12.9 | 0.00 | 0.00 | 0.00 | 34 | 1016.7 |
| 20260503201923 | 20 | 252 | 1.6 | 11.3 | 0.00 | 0.00 | 0.00 | 34 | 1016.5 |
| 20260503201420 | 20 | 210 | 3.2 | 12.9 | 0.00 | 0.00 | 0.00 | 34 | 1016.6 |
| 20260503200420 | 20 | 252 | 3.2 | 12.9 | 0.00 | 0.00 | 0.00 | 34 | 1016.8 |
| 20260503195922 | 20 | 197 | 3.2 | 9.7 | 0.00 | 0.00 | 0.00 | 35 | 1016.9 |
| 20260503195425 | 20 | 226 | 4.8 | 11.3 | 0.00 | 0.00 | 0.00 | 34 | 1017.1 |
| 20260503195419 | 20 | 226 | 4.8 | 9.7 | 0.00 | 0.00 | 0.00 | 34 | 1017.0 |
| 20260503194421 | 20 | 241 | 4.8 | 12.9 | 0.00 | 0.00 | 0.00 | 33 | 1017.1 |
| 20260503193920 | 20 | 291 | 4.8 | 12.9 | 0.00 | 0.00 | 0.00 | 36 | 1017.1 |
| 20260503193420 | 20 | 227 | 3.2 | 8.0 | 0.00 | 0.00 | 0.00 | 34 | 1017.2 |
| 20260503192921 | 20 | 272 | 3.2 | 11.3 | 0.00 | 0.00 | 0.00 | 34 | 1017.3 |
| 20260503192425 | 20 | 240 | 1.6 | 4.8 | 0.00 | 0.00 | 0.00 | 36 | 1017.4 |
| 20260503192419 | 20 | 231 | 3.2 | 11.3 | 0.00 | 0.00 | 0.00 | 33 | 1017.4 |
| 20260503191418 | 20 | 274 | 1.6 | 4.8 | 0.00 | 0.00 | 0.00 | 35 | 1017.6 |
| 20260503190918 | 20 | 273 | 3.2 | 12.9 | 0.00 | 0.00 | 0.00 | 33 | 1017.7 |
| 20260503190417 | 20 | 217 | 3.2 | 12.9 | 0.00 | 0.00 | 0.00 | 37 | 1017.6 |
| 20260503185918 | 21 | 264 | 3.2 | 12.9 | 0.00 | 0.00 | 0.00 | 35 | 1017.7 |
| 20260503185425 | 20 | 229 | 3.2 | 19.3 | 0.00 | 0.00 | 0.00 | 34 | 1017.9 |
| 20260503185419 | 20 | 26 | 3.2 | 17.7 | 0.00 | 0.00 | 0.00 | 37 | 1017.8 |
| 20260503184918 | 20 | 238 | 4.8 | 19.3 | 0.00 | 0.00 | 0.00 | 35 | 1017.9 |
| 20260503183919 | 20 | 280 | 1.6 | 4.8 | 0.00 | 0.00 | 0.00 | 34 | 1017.9 |
| 20260503183416 | 20 | 272 | 1.6 | 6.4 | 0.00 | 0.00 | 0.00 | 34 | 1018.0 |
| 20260503182917 | 20 | 305 | 3.2 | 11.3 | 0.00 | 0.00 | 0.00 | 35 | 1018.0 |
| 20260503182415 | 20 | 262 | 4.8 | 17.7 | 0.00 | 0.00 | 0.00 | 34 | 1018.0 |
| 20260503181915 | 20 | 254 | 4.8 | 17.7 | 0.00 | 0.00 | 0.00 | 32 | 1018.1 |
| 20260503181414 | 20 | 243 | 3.2 | 14.5 | 0.00 | 0.00 | 0.00 | 32 | 1018.1 |
| 20260503180914 | 21 | 249 | 1.6 | 11.3 | 0.00 | 0.00 | 0.00 | 33 | 1018.1 |
| 20260503180414 | 21 | 212 | 1.6 | 12.9 | 0.00 | 0.00 | 0.00 | 37 | 1018.1 |
| 20260503175919 | 20 | 121 | 3.2 | 9.7 | 0.00 | 0.00 | 0.00 | 34 | 1018.3 |
| 20260503175914 | 20 | 237 | 3.2 | 12.9 | 0.00 | 0.00 | 0.00 | 37 | 1018.3 |
| 20260503174915 | 20 | 224 | 3.2 | 9.7 | 0.00 | 0.00 | 0.00 | 34 | 1018.3 |
| 20260503174411 | 20 | 276 | 3.2 | 4.8 | 0.00 | 0.00 | 0.00 | 36 | 1018.3 |
| 20260503173913 | 20 | 255 | 1.6 | 4.8 | 0.00 | 0.00 | 0.00 | 32 | 1018.4 |
| 20260503173412 | 20 | 266 | 3.2 | 16.1 | 0.00 | 0.00 | 0.00 | 33 | 1018.5 |
| 20260503172912 | 20 | 115 | 3.2 | 16.1 | 0.00 | 0.00 | 0.00 | 36 | 1018.7 |
| 20260503172412 | 20 | 258 | 1.6 | 8.0 | 0.00 | 0.00 | 0.00 | 36 | 1018.8 |
| 20260503171917 | 20 | 113 | 1.6 | 9.7 | 0.00 | 0.00 | 0.00 | 37 | 1019.0 |
| 20260503171912 | 20 | 219 | 1.6 | 4.8 | 0.00 | 0.00 | 0.00 | 34 | 1018.9 |
| 20260503170912 | 19 | 163 | 3.2 | 9.7 | 0.00 | 0.00 | 0.00 | 35 | 1019.0 |
| 20260503170412 | 19 | 270 | 3.2 | 8.0 | 0.00 | 0.00 | 0.00 | 39 | 1019.1 |
| 20260503150900 | 17 | 188 | 0.0 | 4.8 | 0.00 | 0.00 | 0.00 | 42 | 1020.1 |
| 20260503150401 | 17 | 221 | 0.0 | 4.8 | 0.00 | 0.00 | 0.00 | 43 | 1020.1 |
| 20260503131400 | 14 | 270 | 0.0 | 1.6 | 0.00 | 0.00 | 0.00 | 52 | 1019.8 |
| 20260503130400 | 14 | 134 | 0.0 | 0.0 | 0.00 | 0.00 | 0.00 | 54 | 1019.9 |
| 20260503110352 | 4 | 219 | 0.0 | 0.0 | 0.00 | 0.00 | 0.00 | 88 | 1018.9 |
| 20260503090353 | 6 | 219 | 0.0 | 0.0 | 0.00 | 0.03 | 0.00 | 82 | 1017.2 |
| 20260503090347 | 5 | 219 | 0.0 | 0.0 | 0.00 | 0.03 | 0.00 | 83 | 1017.3 |
| 20260503081345 | 7 | 219 | 0.0 | 0.0 | 0.00 | 0.03 | 0.00 | 75 | 1016.8 |
| 20260503080850 | 7 | 219 | 0.0 | 0.0 | 0.00 | 0.03 | 0.00 | 73 | 1016.8 |
| 20260503080845 | 7 | 219 | 0.0 | 0.0 | 0.00 | 0.03 | 0.00 | 74 | 1016.9 |
| 20260503080506 | 7 | 219 | 0.0 | 0.0 | 0.00 | 0.03 | 0.00 | 70 | 1016.9 |
| 20260503071844 | 9 | 219 | 0.0 | 0.0 | 0.00 | 0.03 | 0.00 | 65 | 1016.5 |
| 20260503071343 | 9 | 219 | 0.0 | 0.0 | 0.00 | 0.03 | 0.00 | 65 | 1016.3 |
| 20260503070844 | 9 | 219 | 0.0 | 0.0 | 0.00 | 0.03 | 0.00 | 65 | 1016.4 |
| 20260503070342 | 9 | 219 | 0.0 | 0.0 | 0.00 | 0.03 | 0.00 | 65 | 1016.2 |
| 20260503060342 | 9 | 240 | 0.0 | 0.0 | 0.00 | 0.03 | 0.00 | 67 | 1016.0 |
| 20260503054840 | 8 | 240 | 0.0 | 0.0 | 0.00 | 0.03 | 0.00 | 70 | 1016.1 |
| 20260503054340 | 7 | 240 | 0.0 | 0.0 | 0.00 | 0.03 | 0.00 | 73 | 1016.1 |
| 20260503053840 | 7 | 240 | 0.0 | 0.0 | 0.00 | 0.03 | 0.00 | 76 | 1016.1 |
| 20260503053340 | 7 | 240 | 0.0 | 0.0 | 0.00 | 0.03 | 0.00 | 79 | 1016.1 |
| 20260503052838 | 7 | 240 | 0.0 | 0.0 | 0.00 | 0.03 | 0.00 | 78 | 1016.1 |
| 20260503052340 | 7 | 240 | 0.0 | 0.0 | 0.00 | 0.03 | 0.00 | 78 | 1016.1 |
| 20260503051839 | 7 | 240 | 0.0 | 0.0 | 0.00 | 0.03 | 0.00 | 79 | 1016.1 |
| 20260503051339 | 7 | 240 | 0.0 | 0.0 | 0.00 | 0.03 | 0.00 | 79 | 1016.1 |
| 20260503050844 | 7 | 240 | 0.0 | 0.0 | 0.00 | 0.03 | 0.00 | 76 | 1016.0 |
| 20260503050839 | 7 | 240 | 0.0 | 0.0 | 0.00 | 0.03 | 0.00 | 78 | 1016.0 |
| 20260503045839 | 7 | 240 | 0.0 | 0.0 | 0.00 | 0.03 | 0.00 | 79 | 1016.1 |
| 20260503045343 | 7 | 240 | 0.0 | 0.0 | 0.00 | 0.03 | 0.00 | 78 | 1016.1 |
| 20260503045337 | 7 | 240 | 0.0 | 0.0 | 0.00 | 0.03 | 0.00 | 79 | 1016.1 |
| 20260503044336 | 7 | 240 | 0.0 | 0.0 | 0.00 | 0.03 | 0.00 | 78 | 1016.1 |
| 20260503043836 | 7 | 240 | 0.0 | 0.0 | 0.00 | 0.03 | 0.00 | 77 | 1016.1 |
| 20260503043334 | 7 | 240 | 0.0 | 0.0 | 0.00 | 0.03 | 0.00 | 77 | 1016.1 |
| 20260503042834 | 8 | 240 | 0.0 | 0.0 | 0.00 | 0.03 | 0.00 | 76 | 1016.1 |
| 20260503042333 | 8 | 240 | 0.0 | 0.0 | 0.00 | 0.03 | 0.00 | 75 | 1016.0 |
| 20260503041834 | 8 | 240 | 0.0 | 0.0 | 0.00 | 0.03 | 0.00 | 74 | 1016.0 |
| 20260503041338 | 8 | 240 | 0.0 | 0.0 | 0.00 | 0.03 | 0.00 | 73 | 1015.9 |
| 20260503041334 | 8 | 240 | 0.0 | 0.0 | 0.00 | 0.03 | 0.00 | 74 | 1016.0 |
| 20260503040332 | 8 | 240 | 0.0 | 0.0 | 0.00 | 0.03 | 0.00 | 72 | 1015.8 |
| 20260503035832 | 8 | 240 | 0.0 | 0.0 | 0.00 | 0.03 | 0.03 | 72 | 1015.8 |